sensor_id;sensor_type;location;lat;lon;timestamp;temperature;humidity
5344;DHT22;2694;48.954;8.928;2023-08-06T00:00:07;14.50;99.90
5344;DHT22;2694;48.954;8.928;2023-08-06T00:02:35;14.50;99.90
5344;DHT22;2694;48.954;8.928;2023-08-06T00:05:02;14.40;99.90
5344;DHT22;2694;48.954;8.928;2023-08-06T00:07:30;14.40;99.90
5344;DHT22;2694;48.954;8.928;2023-08-06T00:09:58;14.40;99.90
5344;DHT22;2694;48.954;8.928;2023-08-06T00:12:25;14.30;99.90
5344;DHT22;2694;48.954;8.928;2023-08-06T00:14:54;14.20;99.90
5344;DHT22;2694;48.954;8.928;2023-08-06T00:17:21;14.20;99.90
5344;DHT22;2694;48.954;8.928;2023-08-06T00:19:48;14.30;99.90
5344;DHT22;2694;48.954;8.928;2023-08-06T00:22:16;14.20;99.90
5344;DHT22;2694;48.954;8.928;2023-08-06T00:24:44;14.20;99.90
5344;DHT22;2694;48.954;8.928;2023-08-06T00:27:11;14.20;99.90
5344;DHT22;2694;48.954;8.928;2023-08-06T00:29:38;14.20;99.90
5344;DHT22;2694;48.954;8.928;2023-08-06T00:32:07;14.20;99.90
5344;DHT22;2694;48.954;8.928;2023-08-06T00:34:34;14.30;99.90
5344;DHT22;2694;48.954;8.928;2023-08-06T00:37:01;14.40;99.90
5344;DHT22;2694;48.954;8.928;2023-08-06T00:39:29;14.50;99.90
5344;DHT22;2694;48.954;8.928;2023-08-06T00:41:56;14.60;99.90
5344;DHT22;2694;48.954;8.928;2023-08-06T00:44:24;14.60;99.90
5344;DHT22;2694;48.954;8.928;2023-08-06T00:46:51;14.60;99.90
5344;DHT22;2694;48.954;8.928;2023-08-06T00:49:20;14.60;99.90
5344;DHT22;2694;48.954;8.928;2023-08-06T00:51:47;14.50;99.90
5344;DHT22;2694;48.954;8.928;2023-08-06T00:54:15;14.40;99.90
5344;DHT22;2694;48.954;8.928;2023-08-06T00:56:42;14.30;99.90
5344;DHT22;2694;48.954;8.928;2023-08-06T00:59:11;14.30;99.90
5344;DHT22;2694;48.954;8.928;2023-08-06T01:01:38;14.30;99.90
5344;DHT22;2694;48.954;8.928;2023-08-06T01:04:05;14.40;99.90
5344;DHT22;2694;48.954;8.928;2023-08-06T01:06:39;14.40;99.90
5344;DHT22;2694;48.954;8.928;2023-08-06T01:09:21;14.20;99.90
5344;DHT22;2694;48.954;8.928;2023-08-06T01:11:59;14.30;99.90
5344;DHT22;2694;48.954;8.928;2023-08-06T01:14:30;14.20;99.90
5344;DHT22;2694;48.954;8.928;2023-08-06T01:16:59;14.20;99.90
5344;DHT22;2694;48.954;8.928;2023-08-06T01:19:27;14.10;99.90
5344;DHT22;2694;48.954;8.928;2023-08-06T01:21:55;14.20;99.90
5344;DHT22;2694;48.954;8.928;2023-08-06T01:24:22;14.30;99.90
5344;DHT22;2694;48.954;8.928;2023-08-06T01:26:55;14.40;99.90
5344;DHT22;2694;48.954;8.928;2023-08-06T01:29:30;14.40;99.90
5344;DHT22;2694;48.954;8.928;2023-08-06T01:31:58;14.20;99.90
5344;DHT22;2694;48.954;8.928;2023-08-06T01:34:28;14.20;99.90
5344;DHT22;2694;48.954;8.928;2023-08-06T01:36:59;14.20;99.90
5344;DHT22;2694;48.954;8.928;2023-08-06T01:39:27;14.20;99.90
5344;DHT22;2694;48.954;8.928;2023-08-06T01:41:54;14.20;99.90
5344;DHT22;2694;48.954;8.928;2023-08-06T01:44:21;14.10;99.90
5344;DHT22;2694;48.954;8.928;2023-08-06T01:46:48;14.10;99.90
5344;DHT22;2694;48.954;8.928;2023-08-06T01:49:15;14.20;99.90
5344;DHT22;2694;48.954;8.928;2023-08-06T01:51:44;14.20;99.90
5344;DHT22;2694;48.954;8.928;2023-08-06T01:54:13;14.10;99.90
5344;DHT22;2694;48.954;8.928;2023-08-06T01:56:40;14.10;99.90
5344;DHT22;2694;48.954;8.928;2023-08-06T01:59:07;13.90;99.90
5344;DHT22;2694;48.954;8.928;2023-08-06T02:01:34;14.00;99.90
5344;DHT22;2694;48.954;8.928;2023-08-06T02:04:02;14.00;99.90
5344;DHT22;2694;48.954;8.928;2023-08-06T02:06:29;13.90;99.90
5344;DHT22;2694;48.954;8.928;2023-08-06T02:08:56;13.90;99.90
5344;DHT22;2694;48.954;8.928;2023-08-06T02:11:24;13.90;99.90
5344;DHT22;2694;48.954;8.928;2023-08-06T02:13:51;13.80;99.90
5344;DHT22;2694;48.954;8.928;2023-08-06T02:16:19;13.90;99.90
5344;DHT22;2694;48.954;8.928;2023-08-06T02:18:46;13.90;99.90
5344;DHT22;2694;48.954;8.928;2023-08-06T02:21:13;13.80;99.90
5344;DHT22;2694;48.954;8.928;2023-08-06T02:23:41;13.70;99.90
5344;DHT22;2694;48.954;8.928;2023-08-06T02:26:09;13.70;99.90
5344;DHT22;2694;48.954;8.928;2023-08-06T02:28:38;13.70;99.90
5344;DHT22;2694;48.954;8.928;2023-08-06T02:31:05;13.60;99.90
5344;DHT22;2694;48.954;8.928;2023-08-06T02:33:33;13.50;99.90
5344;DHT22;2694;48.954;8.928;2023-08-06T02:36:01;13.50;99.90
5344;DHT22;2694;48.954;8.928;2023-08-06T02:38:29;13.50;99.90
5344;DHT22;2694;48.954;8.928;2023-08-06T02:40:56;13.40;99.90
5344;DHT22;2694;48.954;8.928;2023-08-06T02:43:23;13.50;99.90
5344;DHT22;2694;48.954;8.928;2023-08-06T02:45:56;13.50;99.90
5344;DHT22;2694;48.954;8.928;2023-08-06T02:48:23;13.50;99.90
5344;DHT22;2694;48.954;8.928;2023-08-06T02:50:50;13.40;99.90
5344;DHT22;2694;48.954;8.928;2023-08-06T02:53:17;13.30;99.90
5344;DHT22;2694;48.954;8.928;2023-08-06T02:55:46;13.30;99.90
5344;DHT22;2694;48.954;8.928;2023-08-06T02:58:14;13.30;99.90
5344;DHT22;2694;48.954;8.928;2023-08-06T03:00:42;13.30;99.90
5344;DHT22;2694;48.954;8.928;2023-08-06T03:03:10;13.30;99.90
5344;DHT22;2694;48.954;8.928;2023-08-06T03:05:38;13.20;99.90
5344;DHT22;2694;48.954;8.928;2023-08-06T03:08:05;13.20;99.90
5344;DHT22;2694;48.954;8.928;2023-08-06T03:10:35;13.40;99.90
5344;DHT22;2694;48.954;8.928;2023-08-06T03:13:02;13.50;99.90
5344;DHT22;2694;48.954;8.928;2023-08-06T03:15:29;13.50;99.90
5344;DHT22;2694;48.954;8.928;2023-08-06T03:17:58;13.50;99.90
5344;DHT22;2694;48.954;8.928;2023-08-06T03:20:27;13.60;99.90
5344;DHT22;2694;48.954;8.928;2023-08-06T03:22:54;13.60;99.90
5344;DHT22;2694;48.954;8.928;2023-08-06T03:25:21;13.70;99.90
5344;DHT22;2694;48.954;8.928;2023-08-06T03:27:48;13.70;99.90
5344;DHT22;2694;48.954;8.928;2023-08-06T03:30:16;13.70;99.90
5344;DHT22;2694;48.954;8.928;2023-08-06T03:32:43;13.80;99.90
5344;DHT22;2694;48.954;8.928;2023-08-06T03:35:10;13.80;99.90
5344;DHT22;2694;48.954;8.928;2023-08-06T03:37:38;13.80;99.90
5344;DHT22;2694;48.954;8.928;2023-08-06T03:40:07;13.90;99.90
5344;DHT22;2694;48.954;8.928;2023-08-06T03:42:34;13.90;99.90
5344;DHT22;2694;48.954;8.928;2023-08-06T03:45:01;13.90;99.90
5344;DHT22;2694;48.954;8.928;2023-08-06T03:47:28;14.00;99.90
5344;DHT22;2694;48.954;8.928;2023-08-06T03:49:56;14.00;99.90
5344;DHT22;2694;48.954;8.928;2023-08-06T03:52:23;13.80;99.90
5344;DHT22;2694;48.954;8.928;2023-08-06T03:54:52;13.80;99.90
5344;DHT22;2694;48.954;8.928;2023-08-06T03:57:19;13.80;99.90
5344;DHT22;2694;48.954;8.928;2023-08-06T03:59:46;13.80;99.90
5344;DHT22;2694;48.954;8.928;2023-08-06T04:02:13;13.90;99.90
5344;DHT22;2694;48.954;8.928;2023-08-06T04:04:40;13.80;99.90
5344;DHT22;2694;48.954;8.928;2023-08-06T04:07:07;13.80;99.90
5344;DHT22;2694;48.954;8.928;2023-08-06T04:09:34;13.80;99.90
5344;DHT22;2694;48.954;8.928;2023-08-06T04:12:04;13.70;99.90
5344;DHT22;2694;48.954;8.928;2023-08-06T04:14:31;13.80;99.90
5344;DHT22;2694;48.954;8.928;2023-08-06T04:16:58;13.70;99.90
5344;DHT22;2694;48.954;8.928;2023-08-06T04:19:25;13.70;99.90
5344;DHT22;2694;48.954;8.928;2023-08-06T04:21:51;13.60;99.90
5344;DHT22;2694;48.954;8.928;2023-08-06T04:24:18;13.60;99.90
5344;DHT22;2694;48.954;8.928;2023-08-06T04:26:45;13.50;99.90
5344;DHT22;2694;48.954;8.928;2023-08-06T04:29:14;13.50;99.90
5344;DHT22;2694;48.954;8.928;2023-08-06T04:31:40;13.40;99.90
5344;DHT22;2694;48.954;8.928;2023-08-06T04:34:07;13.40;99.90
5344;DHT22;2694;48.954;8.928;2023-08-06T04:36:34;13.50;99.90
5344;DHT22;2694;48.954;8.928;2023-08-06T04:39:01;13.40;99.90
5344;DHT22;2694;48.954;8.928;2023-08-06T04:41:28;13.50;99.90
5344;DHT22;2694;48.954;8.928;2023-08-06T04:43:56;13.50;99.90
5344;DHT22;2694;48.954;8.928;2023-08-06T04:46:25;13.60;99.90
5344;DHT22;2694;48.954;8.928;2023-08-06T04:48:55;13.60;99.90
5344;DHT22;2694;48.954;8.928;2023-08-06T04:51:22;13.70;99.90
5344;DHT22;2694;48.954;8.928;2023-08-06T04:53:49;13.70;99.90
5344;DHT22;2694;48.954;8.928;2023-08-06T04:56:15;13.80;99.90
5344;DHT22;2694;48.954;8.928;2023-08-06T04:58:42;13.90;99.90
5344;DHT22;2694;48.954;8.928;2023-08-06T05:01:09;13.90;99.90
5344;DHT22;2694;48.954;8.928;2023-08-06T05:03:38;13.90;99.90
5344;DHT22;2694;48.954;8.928;2023-08-06T05:06:05;14.00;99.90
5344;DHT22;2694;48.954;8.928;2023-08-06T05:08:31;14.10;99.90
5344;DHT22;2694;48.954;8.928;2023-08-06T05:10:58;14.10;99.90
5344;DHT22;2694;48.954;8.928;2023-08-06T05:13:25;14.10;99.90
5344;DHT22;2694;48.954;8.928;2023-08-06T05:15:53;14.10;99.90
5344;DHT22;2694;48.954;8.928;2023-08-06T05:18:20;14.20;99.90
5344;DHT22;2694;48.954;8.928;2023-08-06T05:20:49;14.20;99.90
5344;DHT22;2694;48.954;8.928;2023-08-06T05:23:16;14.30;99.90
5344;DHT22;2694;48.954;8.928;2023-08-06T05:25:43;14.30;99.90
5344;DHT22;2694;48.954;8.928;2023-08-06T05:28:10;14.30;99.90
5344;DHT22;2694;48.954;8.928;2023-08-06T05:30:39;14.20;99.90
5344;DHT22;2694;48.954;8.928;2023-08-06T05:33:06;14.20;99.90
5344;DHT22;2694;48.954;8.928;2023-08-06T05:35:33;14.20;99.90
5344;DHT22;2694;48.954;8.928;2023-08-06T05:38:01;14.20;99.90
5344;DHT22;2694;48.954;8.928;2023-08-06T05:40:28;14.20;99.90
5344;DHT22;2694;48.954;8.928;2023-08-06T05:42:55;14.20;99.90
5344;DHT22;2694;48.954;8.928;2023-08-06T05:45:22;14.20;99.90
5344;DHT22;2694;48.954;8.928;2023-08-06T05:47:49;14.20;99.90
5344;DHT22;2694;48.954;8.928;2023-08-06T05:50:16;14.30;99.90
5344;DHT22;2694;48.954;8.928;2023-08-06T05:52:43;14.20;99.90
5344;DHT22;2694;48.954;8.928;2023-08-06T05:55:11;14.20;99.90
5344;DHT22;2694;48.954;8.928;2023-08-06T05:57:38;14.20;99.90
5344;DHT22;2694;48.954;8.928;2023-08-06T06:00:06;14.20;99.90
5344;DHT22;2694;48.954;8.928;2023-08-06T06:02:33;14.10;99.90
5344;DHT22;2694;48.954;8.928;2023-08-06T06:05:00;14.20;99.90
5344;DHT22;2694;48.954;8.928;2023-08-06T06:07:27;14.20;99.90
5344;DHT22;2694;48.954;8.928;2023-08-06T06:09:54;14.30;99.90
5344;DHT22;2694;48.954;8.928;2023-08-06T06:12:22;14.30;99.90
5344;DHT22;2694;48.954;8.928;2023-08-06T06:14:51;14.30;99.90
5344;DHT22;2694;48.954;8.928;2023-08-06T06:17:18;14.40;99.90
5344;DHT22;2694;48.954;8.928;2023-08-06T06:19:45;14.50;99.90
5344;DHT22;2694;48.954;8.928;2023-08-06T06:22:12;14.60;99.90
5344;DHT22;2694;48.954;8.928;2023-08-06T06:24:39;14.60;99.90
5344;DHT22;2694;48.954;8.928;2023-08-06T06:27:06;14.60;99.90
5344;DHT22;2694;48.954;8.928;2023-08-06T06:29:34;14.60;99.90
5344;DHT22;2694;48.954;8.928;2023-08-06T06:32:01;14.60;99.90
5344;DHT22;2694;48.954;8.928;2023-08-06T06:34:28;14.60;99.90
5344;DHT22;2694;48.954;8.928;2023-08-06T06:36:55;14.60;99.90
5344;DHT22;2694;48.954;8.928;2023-08-06T06:39:22;14.60;99.90
5344;DHT22;2694;48.954;8.928;2023-08-06T06:41:49;14.50;99.90
5344;DHT22;2694;48.954;8.928;2023-08-06T06:44:16;14.50;99.90
5344;DHT22;2694;48.954;8.928;2023-08-06T06:46:47;14.40;99.90
5344;DHT22;2694;48.954;8.928;2023-08-06T06:49:20;14.40;99.90
5344;DHT22;2694;48.954;8.928;2023-08-06T06:51:47;14.60;99.90
5344;DHT22;2694;48.954;8.928;2023-08-06T06:54:14;14.60;99.90
5344;DHT22;2694;48.954;8.928;2023-08-06T06:56:42;14.60;99.90
5344;DHT22;2694;48.954;8.928;2023-08-06T06:59:08;14.50;99.90
5344;DHT22;2694;48.954;8.928;2023-08-06T07:01:35;14.60;99.90
5344;DHT22;2694;48.954;8.928;2023-08-06T07:04:04;14.50;99.90
5344;DHT22;2694;48.954;8.928;2023-08-06T07:06:31;14.50;99.90
5344;DHT22;2694;48.954;8.928;2023-08-06T07:08:58;14.50;99.90
5344;DHT22;2694;48.954;8.928;2023-08-06T07:11:25;14.50;99.90
5344;DHT22;2694;48.954;8.928;2023-08-06T07:13:56;14.50;99.90
5344;DHT22;2694;48.954;8.928;2023-08-06T07:16:24;14.50;99.90
5344;DHT22;2694;48.954;8.928;2023-08-06T07:18:52;14.50;99.90
5344;DHT22;2694;48.954;8.928;2023-08-06T07:21:21;14.60;99.90
5344;DHT22;2694;48.954;8.928;2023-08-06T07:23:48;14.70;99.90
5344;DHT22;2694;48.954;8.928;2023-08-06T07:26:16;14.80;99.90
5344;DHT22;2694;48.954;8.928;2023-08-06T07:28:43;14.70;99.90
5344;DHT22;2694;48.954;8.928;2023-08-06T07:31:10;14.70;99.90
5344;DHT22;2694;48.954;8.928;2023-08-06T07:33:37;14.90;99.90
5344;DHT22;2694;48.954;8.928;2023-08-06T07:36:11;15.00;99.90
5344;DHT22;2694;48.954;8.928;2023-08-06T07:38:40;15.00;99.90
5344;DHT22;2694;48.954;8.928;2023-08-06T07:41:08;15.00;99.90
5344;DHT22;2694;48.954;8.928;2023-08-06T07:43:35;15.00;99.90
5344;DHT22;2694;48.954;8.928;2023-08-06T07:46:02;14.90;99.90
5344;DHT22;2694;48.954;8.928;2023-08-06T07:48:29;14.90;99.90
5344;DHT22;2694;48.954;8.928;2023-08-06T07:50:57;14.90;99.90
5344;DHT22;2694;48.954;8.928;2023-08-06T07:53:25;15.00;99.90
5344;DHT22;2694;48.954;8.928;2023-08-06T07:55:56;15.00;99.90
5344;DHT22;2694;48.954;8.928;2023-08-06T07:58:24;15.10;99.90
5344;DHT22;2694;48.954;8.928;2023-08-06T08:00:51;15.20;99.90
5344;DHT22;2694;48.954;8.928;2023-08-06T08:03:18;15.50;99.90
5344;DHT22;2694;48.954;8.928;2023-08-06T08:05:46;15.70;99.90
5344;DHT22;2694;48.954;8.928;2023-08-06T08:08:13;15.80;99.90
5344;DHT22;2694;48.954;8.928;2023-08-06T08:10:40;16.00;99.90
5344;DHT22;2694;48.954;8.928;2023-08-06T08:13:08;16.10;99.90
5344;DHT22;2694;48.954;8.928;2023-08-06T08:15:35;16.20;99.90
5344;DHT22;2694;48.954;8.928;2023-08-06T08:18:02;16.10;99.90
5344;DHT22;2694;48.954;8.928;2023-08-06T08:20:29;16.00;99.90
5344;DHT22;2694;48.954;8.928;2023-08-06T08:22:59;16.00;99.90
5344;DHT22;2694;48.954;8.928;2023-08-06T08:25:27;16.10;99.90
5344;DHT22;2694;48.954;8.928;2023-08-06T08:27:54;16.20;99.90
5344;DHT22;2694;48.954;8.928;2023-08-06T08:30:23;16.20;99.90
5344;DHT22;2694;48.954;8.928;2023-08-06T08:32:50;16.20;99.90
5344;DHT22;2694;48.954;8.928;2023-08-06T08:35:17;16.30;99.90
5344;DHT22;2694;48.954;8.928;2023-08-06T08:37:45;16.60;99.90
5344;DHT22;2694;48.954;8.928;2023-08-06T08:40:13;17.10;99.90
5344;DHT22;2694;48.954;8.928;2023-08-06T08:42:40;16.90;99.90
5344;DHT22;2694;48.954;8.928;2023-08-06T08:45:12;16.60;99.90
5344;DHT22;2694;48.954;8.928;2023-08-06T08:47:42;16.20;99.90
5344;DHT22;2694;48.954;8.928;2023-08-06T08:50:10;15.80;99.90
5344;DHT22;2694;48.954;8.928;2023-08-06T08:52:38;15.60;99.90
5344;DHT22;2694;48.954;8.928;2023-08-06T08:55:07;15.50;99.90
5344;DHT22;2694;48.954;8.928;2023-08-06T08:57:36;15.50;99.90
5344;DHT22;2694;48.954;8.928;2023-08-06T09:00:04;15.60;99.90
5344;DHT22;2694;48.954;8.928;2023-08-06T09:02:33;15.60;99.90
5344;DHT22;2694;48.954;8.928;2023-08-06T09:05:03;15.60;99.90
5344;DHT22;2694;48.954;8.928;2023-08-06T09:07:35;15.80;99.90
5344;DHT22;2694;48.954;8.928;2023-08-06T09:10:04;16.10;99.90
5344;DHT22;2694;48.954;8.928;2023-08-06T09:12:34;16.60;99.90
5344;DHT22;2694;48.954;8.928;2023-08-06T09:15:02;16.90;99.90
5344;DHT22;2694;48.954;8.928;2023-08-06T09:17:30;17.20;99.90
5344;DHT22;2694;48.954;8.928;2023-08-06T09:19:57;17.40;99.90
5344;DHT22;2694;48.954;8.928;2023-08-06T09:22:34;17.40;99.90
5344;DHT22;2694;48.954;8.928;2023-08-06T09:25:01;17.20;99.90
5344;DHT22;2694;48.954;8.928;2023-08-06T09:27:30;17.00;99.90
5344;DHT22;2694;48.954;8.928;2023-08-06T09:29:56;16.70;99.90
5344;DHT22;2694;48.954;8.928;2023-08-06T09:32:24;16.60;99.90
5344;DHT22;2694;48.954;8.928;2023-08-06T09:34:55;16.60;99.90
5344;DHT22;2694;48.954;8.928;2023-08-06T09:37:23;16.60;99.90
5344;DHT22;2694;48.954;8.928;2023-08-06T09:39:51;16.40;99.90
5344;DHT22;2694;48.954;8.928;2023-08-06T09:42:19;16.20;99.90
5344;DHT22;2694;48.954;8.928;2023-08-06T09:44:46;16.10;99.90
5344;DHT22;2694;48.954;8.928;2023-08-06T09:47:16;16.20;99.90
5344;DHT22;2694;48.954;8.928;2023-08-06T09:49:43;16.40;99.90
5344;DHT22;2694;48.954;8.928;2023-08-06T09:52:12;16.50;99.90
5344;DHT22;2694;48.954;8.928;2023-08-06T09:54:39;16.30;99.90
5344;DHT22;2694;48.954;8.928;2023-08-06T09:57:08;16.00;99.90
5344;DHT22;2694;48.954;8.928;2023-08-06T09:59:37;16.00;99.90
5344;DHT22;2694;48.954;8.928;2023-08-06T10:02:11;15.70;99.90
5344;DHT22;2694;48.954;8.928;2023-08-06T10:04:39;15.50;99.90
5344;DHT22;2694;48.954;8.928;2023-08-06T10:07:08;15.70;99.90
5344;DHT22;2694;48.954;8.928;2023-08-06T10:09:36;15.80;99.90
5344;DHT22;2694;48.954;8.928;2023-08-06T10:12:03;15.80;99.90
5344;DHT22;2694;48.954;8.928;2023-08-06T10:14:33;15.80;99.90
5344;DHT22;2694;48.954;8.928;2023-08-06T10:17:00;16.00;99.90
5344;DHT22;2694;48.954;8.928;2023-08-06T10:19:28;16.10;99.90
5344;DHT22;2694;48.954;8.928;2023-08-06T10:22:15;16.10;99.90
5344;DHT22;2694;48.954;8.928;2023-08-06T10:24:47;16.20;99.90
5344;DHT22;2694;48.954;8.928;2023-08-06T10:27:14;16.30;99.90
5344;DHT22;2694;48.954;8.928;2023-08-06T10:29:47;16.30;99.90
5344;DHT22;2694;48.954;8.928;2023-08-06T10:32:14;16.20;99.90
5344;DHT22;2694;48.954;8.928;2023-08-06T10:34:57;16.10;99.90
5344;DHT22;2694;48.954;8.928;2023-08-06T10:37:27;16.10;99.90
5344;DHT22;2694;48.954;8.928;2023-08-06T10:40:01;15.90;99.90
5344;DHT22;2694;48.954;8.928;2023-08-06T10:42:28;15.80;99.90
5344;DHT22;2694;48.954;8.928;2023-08-06T10:45:16;15.80;99.90
5344;DHT22;2694;48.954;8.928;2023-08-06T10:47:43;15.60;99.90
5344;DHT22;2694;48.954;8.928;2023-08-06T10:50:12;15.50;99.90
5344;DHT22;2694;48.954;8.928;2023-08-06T10:52:42;15.40;99.90
5344;DHT22;2694;48.954;8.928;2023-08-06T10:55:12;15.50;99.90
5344;DHT22;2694;48.954;8.928;2023-08-06T10:57:39;15.50;99.90
5344;DHT22;2694;48.954;8.928;2023-08-06T11:00:09;15.60;99.90
5344;DHT22;2694;48.954;8.928;2023-08-06T11:02:41;15.60;99.90
5344;DHT22;2694;48.954;8.928;2023-08-06T11:05:11;15.60;99.90
5344;DHT22;2694;48.954;8.928;2023-08-06T11:07:41;15.70;99.90
5344;DHT22;2694;48.954;8.928;2023-08-06T11:10:13;15.50;99.90
5344;DHT22;2694;48.954;8.928;2023-08-06T11:12:40;15.70;99.90
5344;DHT22;2694;48.954;8.928;2023-08-06T11:15:08;15.90;99.90
5344;DHT22;2694;48.954;8.928;2023-08-06T11:17:37;16.00;99.90
5344;DHT22;2694;48.954;8.928;2023-08-06T11:20:08;16.00;99.90
5344;DHT22;2694;48.954;8.928;2023-08-06T11:22:36;16.00;99.90
5344;DHT22;2694;48.954;8.928;2023-08-06T11:25:05;16.10;99.90
5344;DHT22;2694;48.954;8.928;2023-08-06T11:27:32;15.90;99.90
5344;DHT22;2694;48.954;8.928;2023-08-06T11:30:00;16.00;99.90
5344;DHT22;2694;48.954;8.928;2023-08-06T11:32:27;16.00;99.90
5344;DHT22;2694;48.954;8.928;2023-08-06T11:34:54;15.90;99.90
5344;DHT22;2694;48.954;8.928;2023-08-06T11:37:23;15.50;99.90
5344;DHT22;2694;48.954;8.928;2023-08-06T11:39:52;15.30;99.90
5344;DHT22;2694;48.954;8.928;2023-08-06T11:42:19;15.20;99.90
5344;DHT22;2694;48.954;8.928;2023-08-06T11:44:46;15.10;99.90
5344;DHT22;2694;48.954;8.928;2023-08-06T11:47:15;14.90;99.90
5344;DHT22;2694;48.954;8.928;2023-08-06T11:49:46;14.70;99.90
5344;DHT22;2694;48.954;8.928;2023-08-06T11:52:15;14.50;99.90
5344;DHT22;2694;48.954;8.928;2023-08-06T11:54:46;14.30;99.90
5344;DHT22;2694;48.954;8.928;2023-08-06T11:57:14;14.30;99.90
5344;DHT22;2694;48.954;8.928;2023-08-06T11:59:42;14.30;99.90
5344;DHT22;2694;48.954;8.928;2023-08-06T12:02:10;14.30;99.90
5344;DHT22;2694;48.954;8.928;2023-08-06T12:05:02;14.20;99.90
5344;DHT22;2694;48.954;8.928;2023-08-06T12:07:37;14.10;99.90
5344;DHT22;2694;48.954;8.928;2023-08-06T12:10:08;14.10;99.90
5344;DHT22;2694;48.954;8.928;2023-08-06T12:12:36;14.00;99.90
5344;DHT22;2694;48.954;8.928;2023-08-06T12:15:12;14.00;99.90
5344;DHT22;2694;48.954;8.928;2023-08-06T12:17:39;14.00;99.90
5344;DHT22;2694;48.954;8.928;2023-08-06T12:20:07;14.10;99.90
5344;DHT22;2694;48.954;8.928;2023-08-06T12:22:35;14.10;99.90
5344;DHT22;2694;48.954;8.928;2023-08-06T12:25:04;14.00;99.90
5344;DHT22;2694;48.954;8.928;2023-08-06T12:27:35;14.10;99.90
5344;DHT22;2694;48.954;8.928;2023-08-06T12:30:03;14.10;99.90
5344;DHT22;2694;48.954;8.928;2023-08-06T12:32:30;14.10;99.90
5344;DHT22;2694;48.954;8.928;2023-08-06T12:34:59;14.20;99.90
5344;DHT22;2694;48.954;8.928;2023-08-06T12:37:29;14.30;99.90
5344;DHT22;2694;48.954;8.928;2023-08-06T12:39:56;14.30;99.90
5344;DHT22;2694;48.954;8.928;2023-08-06T12:42:23;14.30;99.90
5344;DHT22;2694;48.954;8.928;2023-08-06T12:44:51;14.30;99.90
5344;DHT22;2694;48.954;8.928;2023-08-06T12:47:18;14.30;99.90
5344;DHT22;2694;48.954;8.928;2023-08-06T12:49:45;14.40;99.90
5344;DHT22;2694;48.954;8.928;2023-08-06T12:52:15;14.50;99.90
5344;DHT22;2694;48.954;8.928;2023-08-06T12:54:42;14.50;99.90
5344;DHT22;2694;48.954;8.928;2023-08-06T12:57:11;14.50;99.90
5344;DHT22;2694;48.954;8.928;2023-08-06T12:59:38;14.60;99.90
5344;DHT22;2694;48.954;8.928;2023-08-06T13:02:06;14.70;99.90
5344;DHT22;2694;48.954;8.928;2023-08-06T13:04:33;14.60;99.90
5344;DHT22;2694;48.954;8.928;2023-08-06T13:07:00;14.50;99.90
5344;DHT22;2694;48.954;8.928;2023-08-06T13:09:27;14.50;99.90
5344;DHT22;2694;48.954;8.928;2023-08-06T13:11:55;14.50;99.90
5344;DHT22;2694;48.954;8.928;2023-08-06T13:14:22;14.50;99.90
5344;DHT22;2694;48.954;8.928;2023-08-06T13:16:49;14.50;99.90
5344;DHT22;2694;48.954;8.928;2023-08-06T13:19:17;14.50;99.90
5344;DHT22;2694;48.954;8.928;2023-08-06T13:22:01;14.50;99.90
5344;DHT22;2694;48.954;8.928;2023-08-06T13:24:29;14.50;99.90
5344;DHT22;2694;48.954;8.928;2023-08-06T13:26:56;14.50;99.90
5344;DHT22;2694;48.954;8.928;2023-08-06T13:29:25;14.50;99.90
5344;DHT22;2694;48.954;8.928;2023-08-06T13:31:52;14.60;99.90
5344;DHT22;2694;48.954;8.928;2023-08-06T13:34:21;14.60;99.90
5344;DHT22;2694;48.954;8.928;2023-08-06T13:36:48;14.70;99.90
5344;DHT22;2694;48.954;8.928;2023-08-06T13:39:15;14.90;99.90
5344;DHT22;2694;48.954;8.928;2023-08-06T13:41:43;15.00;99.90
5344;DHT22;2694;48.954;8.928;2023-08-06T13:44:10;14.90;99.90
5344;DHT22;2694;48.954;8.928;2023-08-06T13:46:39;14.90;99.90
5344;DHT22;2694;48.954;8.928;2023-08-06T13:49:07;14.80;99.90
5344;DHT22;2694;48.954;8.928;2023-08-06T13:51:35;14.70;99.90
5344;DHT22;2694;48.954;8.928;2023-08-06T13:54:02;14.80;99.90
5344;DHT22;2694;48.954;8.928;2023-08-06T13:56:29;15.00;99.90
5344;DHT22;2694;48.954;8.928;2023-08-06T13:58:56;15.20;99.90
5344;DHT22;2694;48.954;8.928;2023-08-06T14:01:23;15.40;99.90
5344;DHT22;2694;48.954;8.928;2023-08-06T14:03:50;15.70;99.90
5344;DHT22;2694;48.954;8.928;2023-08-06T14:06:19;15.80;99.90
5344;DHT22;2694;48.954;8.928;2023-08-06T14:08:47;15.80;99.90
5344;DHT22;2694;48.954;8.928;2023-08-06T14:11:14;15.60;99.90
5344;DHT22;2694;48.954;8.928;2023-08-06T14:13:41;15.40;99.90
5344;DHT22;2694;48.954;8.928;2023-08-06T14:16:08;15.20;99.90
5344;DHT22;2694;48.954;8.928;2023-08-06T14:18:35;14.90;99.90
5344;DHT22;2694;48.954;8.928;2023-08-06T14:21:04;14.90;99.90
5344;DHT22;2694;48.954;8.928;2023-08-06T14:23:30;14.80;99.90
5344;DHT22;2694;48.954;8.928;2023-08-06T14:25:59;14.70;99.90
5344;DHT22;2694;48.954;8.928;2023-08-06T14:28:26;14.70;99.90
5344;DHT22;2694;48.954;8.928;2023-08-06T14:30:53;14.60;99.90
5344;DHT22;2694;48.954;8.928;2023-08-06T14:33:20;14.60;99.90
5344;DHT22;2694;48.954;8.928;2023-08-06T14:35:47;14.70;99.90
5344;DHT22;2694;48.954;8.928;2023-08-06T14:38:15;14.90;99.90
5344;DHT22;2694;48.954;8.928;2023-08-06T14:40:43;15.00;99.90
5344;DHT22;2694;48.954;8.928;2023-08-06T14:43:12;15.20;99.90
5344;DHT22;2694;48.954;8.928;2023-08-06T14:45:39;15.50;99.90
5344;DHT22;2694;48.954;8.928;2023-08-06T14:48:06;15.70;99.90
5344;DHT22;2694;48.954;8.928;2023-08-06T14:50:34;15.80;99.90
5344;DHT22;2694;48.954;8.928;2023-08-06T14:53:02;15.80;99.90
5344;DHT22;2694;48.954;8.928;2023-08-06T14:55:32;15.70;99.90
5344;DHT22;2694;48.954;8.928;2023-08-06T14:58:00;15.70;99.90
5344;DHT22;2694;48.954;8.928;2023-08-06T15:00:28;15.80;99.90
5344;DHT22;2694;48.954;8.928;2023-08-06T15:02:55;15.80;99.90
5344;DHT22;2694;48.954;8.928;2023-08-06T15:05:22;15.60;99.90
5344;DHT22;2694;48.954;8.928;2023-08-06T15:07:49;15.50;99.90
5344;DHT22;2694;48.954;8.928;2023-08-06T15:10:19;15.40;99.90
5344;DHT22;2694;48.954;8.928;2023-08-06T15:12:46;15.30;99.90
5344;DHT22;2694;48.954;8.928;2023-08-06T15:15:13;15.30;99.90
5344;DHT22;2694;48.954;8.928;2023-08-06T15:17:41;15.30;99.90
5344;DHT22;2694;48.954;8.928;2023-08-06T15:20:09;15.20;99.90
5344;DHT22;2694;48.954;8.928;2023-08-06T15:22:36;15.00;99.90
5344;DHT22;2694;48.954;8.928;2023-08-06T15:25:04;15.00;99.90
5344;DHT22;2694;48.954;8.928;2023-08-06T15:27:31;14.90;99.90
5344;DHT22;2694;48.954;8.928;2023-08-06T15:29:59;14.80;99.90
5344;DHT22;2694;48.954;8.928;2023-08-06T15:32:26;14.70;99.90
5344;DHT22;2694;48.954;8.928;2023-08-06T15:34:54;14.70;99.90
5344;DHT22;2694;48.954;8.928;2023-08-06T15:37:22;14.80;99.90
5344;DHT22;2694;48.954;8.928;2023-08-06T15:39:49;14.80;99.90
5344;DHT22;2694;48.954;8.928;2023-08-06T15:42:16;14.80;99.90
5344;DHT22;2694;48.954;8.928;2023-08-06T15:44:43;14.80;99.90
5344;DHT22;2694;48.954;8.928;2023-08-06T15:47:10;14.90;99.90
5344;DHT22;2694;48.954;8.928;2023-08-06T15:49:38;14.80;99.90
5344;DHT22;2694;48.954;8.928;2023-08-06T15:52:07;14.80;99.90
5344;DHT22;2694;48.954;8.928;2023-08-06T15:54:34;14.80;99.90
5344;DHT22;2694;48.954;8.928;2023-08-06T15:57:01;14.70;99.90
5344;DHT22;2694;48.954;8.928;2023-08-06T15:59:30;14.50;99.90
5344;DHT22;2694;48.954;8.928;2023-08-06T16:01:57;14.40;99.90
5344;DHT22;2694;48.954;8.928;2023-08-06T16:04:26;14.40;99.90
5344;DHT22;2694;48.954;8.928;2023-08-06T16:06:53;14.20;99.90